Terminal Aerodrome Forecast
Issued by NWS Cleveland, OH

Home | Current Version | Previous Version | Text Only | Print | Product List | Glossary On
Versions: 1 2 3 4 5 6 7 8 9 10 11 12 13 14
386
FTUS41 KCLE 101135
TAFYNG
TAF
KYNG 101135Z 1012/1112 25012KT P6SM -SHSN OVC035
      TEMPO 1012/1016 4SM -SHSN OVC025
     FM101600 26010KT P6SM OVC050
     FM110000 22006KT P6SM OVC035
     FM111000 20004KT 4SM -SN OVC025=

USA.gov is the U.S. government's official web portal to all federal, state and local government web resources and services.